Airfield :
LOGIN :

Register | Disclaimer

   EN    FR    IT 

 










Legend :    VFR   Marginal VFR   IFR   Intensive IFR   Very Intensive IFR
Visi :
Ceiling :
>= 8 km
>= 3000ft
5 to 8 km
1000 to 3000 ft
1500m to 5 km
500 to 1000 ft
800 to 1500m
200 to 500 ft
< 800m
< 200 ft
Symbols :   Thunderstorms  Fog  Heavy snow  Heavy precipitations  Wind > 20 kt
SIGMETs :     Misc.  Thunderstorms  Icing  Turbulence  Mountain Waves  Volcanic Ashes






- Airport Elevation : 124 ft
- IATA code : RNS


LFRN - Rennes

CURRENT METAR :
  • 100500Z AUTO 19010KT 9999 FEW027/// SCT058/// ///TCU 11/09 Q1001 TEMPO SHRA BKN009

EXPIRED METARs :
  • 100430Z AUTO 19009KT 9999 FEW022 SCT027 11/09 Q1001 TEMPO SHRA BKN009
  • 100400Z AUTO 19009KT 9999 SCT019 BKN025 BKN031 11/09 Q1001 TEMPO SHRA BKN009
  • 100330Z AUTO 20009KT 9999 FEW023 11/09 Q1001 TEMPO SHRA BKN009
  • 100300Z AUTO 21010KT 9999 SCT022 SCT032 BKN060 11/09 Q1001 TEMPO SHRA BKN009
  • 100230Z AUTO 20008KT 170V230 9999 FEW017 BKN025 BKN047 11/10 Q1000 TEMPO SHRA BKN009

TAF TAF LFRN
Valid from the 10 at 00:00 until the 11 at 00:00 UTC


092300Z 1000/1024 20010KT 9999 BKN030
PROB30
TEMPO 1000/1007 5000 SHRA BKN009
TEMPO 1007/1017 22015G30KT
PROB40
TEMPO 1007/1019 4000 SHRA BKN020CB
BECMG 1019/1021 VRB05KT
ATIS : +33 2 99 67 72 50



MET'MAP, your aeronautical weather chart ! - Copyright ORBIFLY December 2007 - Disclaimer

ORBIFLY MET'MAP TEAM :

Programming & Development : Alexandra Zaïnal
Concept & original design : Baudouin d'Aumeries
Assistance for programming : Marc-Olivier Méhu
Technical & hardware support : Manuel Goepfert

Contact : metmap@orbifly.com




SOURCES & CREDITS :

   NOAA